sensor_id;sensor_type;location;lat;lon;timestamp;pressure;altitude;pressure_sealevel;temperature;humidity
74544;BME280;63016;55.030;38.710;2023-08-17T00:01:51;100684.09;;;16.80;57.80
74544;BME280;63016;55.030;38.710;2023-08-17T00:04:16;100687.09;;;16.77;58.04
74544;BME280;63016;55.030;38.710;2023-08-17T00:06:42;100673.22;;;16.68;58.08
74544;BME280;63016;55.030;38.710;2023-08-17T00:09:08;100691.94;;;16.74;58.15
74544;BME280;63016;55.030;38.710;2023-08-17T00:11:35;100693.09;;;16.71;58.00
74544;BME280;63016;55.030;38.710;2023-08-17T00:14:00;100700.38;;;16.69;58.18
74544;BME280;63016;55.030;38.710;2023-08-17T00:16:26;100692.47;;;16.69;58.11
74544;BME280;63016;55.030;38.710;2023-08-17T00:18:51;100689.59;;;16.64;58.03
74544;BME280;63016;55.030;38.710;2023-08-17T00:21:17;100695.00;;;16.62;57.81
74544;BME280;63016;55.030;38.710;2023-08-17T00:23:43;100699.00;;;16.58;57.64
74544;BME280;63016;55.030;38.710;2023-08-17T00:26:08;100695.16;;;16.54;57.91
74544;BME280;63016;55.030;38.710;2023-08-17T00:28:34;100700.41;;;16.54;58.07
74544;BME280;63016;55.030;38.710;2023-08-17T00:31:00;100700.31;;;16.48;58.14
74544;BME280;63016;55.030;38.710;2023-08-17T00:33:25;100704.22;;;16.52;58.31
74544;BME280;63016;55.030;38.710;2023-08-17T00:35:51;100691.78;;;16.45;58.47
74544;BME280;63016;55.030;38.710;2023-08-17T00:38:17;100711.66;;;16.48;58.33
74544;BME280;63016;55.030;38.710;2023-08-17T00:40:42;100696.97;;;16.39;58.26
74544;BME280;63016;55.030;38.710;2023-08-17T00:43:08;100709.41;;;16.45;58.48
74544;BME280;63016;55.030;38.710;2023-08-17T00:45:34;100715.84;;;16.42;58.64
74544;BME280;63016;55.030;38.710;2023-08-17T00:48:00;100708.97;;;16.41;58.59
74544;BME280;63016;55.030;38.710;2023-08-17T00:50:26;100713.59;;;16.39;58.74
74544;BME280;63016;55.030;38.710;2023-08-17T00:52:53;100704.25;;;16.37;58.91
74544;BME280;63016;55.030;38.710;2023-08-17T00:55:19;100712.75;;;16.39;59.01
74544;BME280;63016;55.030;38.710;2023-08-17T00:57:45;100715.22;;;16.40;58.86
74544;BME280;63016;55.030;38.710;2023-08-17T01:00:12;100718.41;;;16.36;58.98
74544;BME280;63016;55.030;38.710;2023-08-17T01:02:40;100714.97;;;16.35;58.98
74544;BME280;63016;55.030;38.710;2023-08-17T01:05:05;100712.16;;;16.37;58.93
74544;BME280;63016;55.030;38.710;2023-08-17T01:07:31;100716.78;;;16.35;59.09
74544;BME280;63016;55.030;38.710;2023-08-17T01:09:57;100711.53;;;16.35;58.96
74544;BME280;63016;55.030;38.710;2023-08-17T01:12:38;100714.69;;;16.30;59.17
74544;BME280;63016;55.030;38.710;2023-08-17T01:20:15;100719.31;;;16.28;58.95
74544;BME280;63016;55.030;38.710;2023-08-17T01:22:45;100720.31;;;16.27;59.19
74544;BME280;63016;55.030;38.710;2023-08-17T01:25:12;100712.63;;;16.26;59.22
74544;BME280;63016;55.030;38.710;2023-08-17T01:27:42;100711.97;;;16.24;59.17
74544;BME280;63016;55.030;38.710;2023-08-17T01:30:09;100710.34;;;16.23;59.27
74544;BME280;63016;55.030;38.710;2023-08-17T01:32:41;100704.06;;;16.24;59.35
74544;BME280;63016;55.030;38.710;2023-08-17T01:35:30;100706.69;;;16.24;58.83
74544;BME280;63016;55.030;38.710;2023-08-17T01:38:04;100709.31;;;16.24;59.33
74544;BME280;63016;55.030;38.710;2023-08-17T01:40:33;100712.97;;;16.23;59.15
74544;BME280;63016;55.030;38.710;2023-08-17T01:43:01;100705.25;;;16.21;59.05
74544;BME280;63016;55.030;38.710;2023-08-17T01:45:27;100697.91;;;16.16;59.36
74544;BME280;63016;55.030;38.710;2023-08-17T01:47:52;100703.63;;;16.20;59.30
74544;BME280;63016;55.030;38.710;2023-08-17T01:50:18;100710.06;;;16.17;59.64
74544;BME280;63016;55.030;38.710;2023-08-17T01:52:44;100700.34;;;16.18;59.12
74544;BME280;63016;55.030;38.710;2023-08-17T01:55:09;100706.63;;;16.17;59.43
74544;BME280;63016;55.030;38.710;2023-08-17T01:57:35;100705.00;;;16.16;59.67
74544;BME280;63016;55.030;38.710;2023-08-17T02:00:04;100711.25;;;16.15;59.55
74544;BME280;63016;55.030;38.710;2023-08-17T02:02:30;100708.78;;;16.13;59.72
74544;BME280;63016;55.030;38.710;2023-08-17T02:04:56;100707.16;;;16.12;59.60
74544;BME280;63016;55.030;38.710;2023-08-17T02:07:22;100701.09;;;16.12;59.56
74544;BME280;63016;55.030;38.710;2023-08-17T02:09:47;100711.63;;;16.12;59.62
74544;BME280;63016;55.030;38.710;2023-08-17T02:12:13;100711.63;;;16.12;59.89
74544;BME280;63016;55.030;38.710;2023-08-17T02:14:38;100715.25;;;16.11;59.80
74544;BME280;63016;55.030;38.710;2023-08-17T02:17:03;100719.06;;;16.08;59.80
74544;BME280;63016;55.030;38.710;2023-08-17T02:19:31;100720.50;;;16.11;59.40
74544;BME280;63016;55.030;38.710;2023-08-17T02:21:57;100720.50;;;16.11;59.49
74544;BME280;63016;55.030;38.710;2023-08-17T02:24:22;100716.59;;;16.07;59.73
74544;BME280;63016;55.030;38.710;2023-08-17T02:26:48;100705.41;;;16.05;59.82
74544;BME280;63016;55.030;38.710;2023-08-17T02:29:13;100720.88;;;16.08;59.89
74544;BME280;63016;55.030;38.710;2023-08-17T02:31:39;100721.06;;;16.06;60.24
74544;BME280;63016;55.030;38.710;2023-08-17T02:34:04;100711.69;;;16.04;59.91
74544;BME280;63016;55.030;38.710;2023-08-17T02:36:31;100720.06;;;16.07;59.96
74544;BME280;63016;55.030;38.710;2023-08-17T02:38:57;100728.75;;;16.08;60.36
74544;BME280;63016;55.030;38.710;2023-08-17T02:41:22;100721.69;;;16.08;60.13
74544;BME280;63016;55.030;38.710;2023-08-17T02:43:48;100714.44;;;16.10;60.18
74544;BME280;63016;55.030;38.710;2023-08-17T02:46:13;100705.81;;;16.02;60.36
74544;BME280;63016;55.030;38.710;2023-08-17T02:48:39;100720.31;;;16.12;60.18
74544;BME280;63016;55.030;38.710;2023-08-17T02:51:04;100718.50;;;16.13;60.19
74544;BME280;63016;55.030;38.710;2023-08-17T02:53:30;100713.59;;;16.10;60.63
74544;BME280;63016;55.030;38.710;2023-08-17T02:55:55;100720.78;;;16.16;60.57
74544;BME280;63016;55.030;38.710;2023-08-17T02:58:21;100721.41;;;16.18;60.29
74544;BME280;63016;55.030;38.710;2023-08-17T03:00:46;100718.16;;;16.16;60.49
74544;BME280;63016;55.030;38.710;2023-08-17T03:03:12;100728.75;;;16.23;61.13
74544;BME280;63016;55.030;38.710;2023-08-17T03:05:37;100724.16;;;16.25;61.13
74544;BME280;63016;55.030;38.710;2023-08-17T03:08:03;100723.78;;;16.28;61.62
74544;BME280;63016;55.030;38.710;2023-08-17T03:10:29;100712.22;;;16.29;61.71
74544;BME280;63016;55.030;38.710;2023-08-17T03:12:54;100725.66;;;16.34;61.78
74544;BME280;63016;55.030;38.710;2023-08-17T03:15:20;100730.84;;;16.42;61.87
74544;BME280;63016;55.030;38.710;2023-08-17T03:17:45;100730.28;;;16.47;61.86
74544;BME280;63016;55.030;38.710;2023-08-17T03:20:11;100732.38;;;16.51;62.06
74544;BME280;63016;55.030;38.710;2023-08-17T03:22:36;100736.09;;;16.57;62.03
74544;BME280;63016;55.030;38.710;2023-08-17T03:25:02;100730.09;;;16.63;62.42
74544;BME280;63016;55.030;38.710;2023-08-17T03:27:28;100730.81;;;16.72;61.78
74544;BME280;63016;55.030;38.710;2023-08-17T03:29:54;100734.72;;;16.76;62.20
74544;BME280;63016;55.030;38.710;2023-08-17T03:32:19;100731.34;;;16.82;62.38
74544;BME280;63016;55.030;38.710;2023-08-17T03:34:45;100736.16;;;16.93;62.37
74544;BME280;63016;55.030;38.710;2023-08-17T03:37:10;100736.22;;;17.00;62.67
74544;BME280;63016;55.030;38.710;2023-08-17T03:39:36;100734.28;;;17.08;62.33
74544;BME280;63016;55.030;38.710;2023-08-17T03:42:01;100736.97;;;17.15;62.69
74544;BME280;63016;55.030;38.710;2023-08-17T03:44:27;100736.22;;;17.21;63.13
74544;BME280;63016;55.030;38.710;2023-08-17T03:46:52;100724.38;;;17.32;63.33
74544;BME280;63016;55.030;38.710;2023-08-17T03:49:18;100736.22;;;17.42;63.25
74544;BME280;63016;55.030;38.710;2023-08-17T03:51:43;100728.56;;;17.47;63.28
74544;BME280;63016;55.030;38.710;2023-08-17T03:54:09;100735.94;;;17.59;63.58
74544;BME280;63016;55.030;38.710;2023-08-17T03:56:34;100722.63;;;17.67;63.68
74544;BME280;63016;55.030;38.710;2023-08-17T03:58:59;100733.50;;;17.79;63.46
74544;BME280;63016;55.030;38.710;2023-08-17T04:01:25;100733.16;;;17.88;63.15
74544;BME280;63016;55.030;38.710;2023-08-17T04:03:50;100740.34;;;18.01;63.12
74544;BME280;63016;55.030;38.710;2023-08-17T04:06:16;100732.66;;;18.06;63.35
74544;BME280;63016;55.030;38.710;2023-08-17T04:08:41;100735.19;;;18.21;63.11
74544;BME280;63016;55.030;38.710;2023-08-17T04:11:07;100735.84;;;18.30;62.91
74544;BME280;63016;55.030;38.710;2023-08-17T04:13:32;100728.38;;;18.33;62.94
74544;BME280;63016;55.030;38.710;2023-08-17T04:15:58;100748.34;;;18.49;63.36
74544;BME280;63016;55.030;38.710;2023-08-17T04:18:24;100743.72;;;18.58;63.08
74544;BME280;63016;55.030;38.710;2023-08-17T04:20:49;100742.38;;;18.68;62.54
74544;BME280;63016;55.030;38.710;2023-08-17T04:23:15;100735.25;;;18.75;62.48
74544;BME280;63016;55.030;38.710;2023-08-17T04:25:42;100732.22;;;18.85;62.79
74544;BME280;63016;55.030;38.710;2023-08-17T04:28:07;100734.50;;;18.95;62.93
74544;BME280;63016;55.030;38.710;2023-08-17T04:30:33;100735.78;;;19.06;62.55
74544;BME280;63016;55.030;38.710;2023-08-17T04:32:58;100731.91;;;19.15;62.84
74544;BME280;63016;55.030;38.710;2023-08-17T04:35:24;100741.09;;;19.25;62.76
74544;BME280;63016;55.030;38.710;2023-08-17T04:37:49;100739.66;;;19.36;62.91
74544;BME280;63016;55.030;38.710;2023-08-17T04:40:15;100735.19;;;19.37;62.64
74544;BME280;63016;55.030;38.710;2023-08-17T04:42:40;100737.44;;;19.53;62.61
74544;BME280;63016;55.030;38.710;2023-08-17T04:45:06;100740.53;;;19.63;62.50
74544;BME280;63016;55.030;38.710;2023-08-17T04:47:32;100735.81;;;19.72;62.90
74544;BME280;63016;55.030;38.710;2023-08-17T04:49:57;100739.72;;;19.83;62.74
74544;BME280;63016;55.030;38.710;2023-08-17T04:52:23;100743.75;;;19.92;62.76
74544;BME280;63016;55.030;38.710;2023-08-17T04:54:48;100744.16;;;20.02;62.84
74544;BME280;63016;55.030;38.710;2023-08-17T04:57:14;100747.38;;;20.11;62.69
74544;BME280;63016;55.030;38.710;2023-08-17T04:59:40;100735.75;;;20.18;62.64
74544;BME280;63016;55.030;38.710;2023-08-17T05:02:05;100734.50;;;20.27;62.36
74544;BME280;63016;55.030;38.710;2023-08-17T05:04:31;100741.41;;;20.42;62.82
74544;BME280;63016;55.030;38.710;2023-08-17T05:06:57;100743.03;;;20.49;62.11
74544;BME280;63016;55.030;38.710;2023-08-17T05:09:22;100739.34;;;20.57;62.25
74544;BME280;63016;55.030;38.710;2023-08-17T05:11:48;100746.63;;;20.68;62.28
74544;BME280;63016;55.030;38.710;2023-08-17T05:14:13;100754.13;;;20.78;62.53
74544;BME280;63016;55.030;38.710;2023-08-17T05:16:39;100745.34;;;20.84;62.16
74544;BME280;63016;55.030;38.710;2023-08-17T05:19:04;100741.38;;;20.93;61.94
74544;BME280;63016;55.030;38.710;2023-08-17T05:21:30;100747.00;;;21.10;62.33
74544;BME280;63016;55.030;38.710;2023-08-17T05:23:56;100756.13;;;21.21;62.13
74544;BME280;63016;55.030;38.710;2023-08-17T05:26:21;100753.84;;;21.31;61.96
74544;BME280;63016;55.030;38.710;2023-08-17T05:28:47;100754.16;;;21.41;62.23
74544;BME280;63016;55.030;38.710;2023-08-17T05:31:12;100759.81;;;21.51;61.61
74544;BME280;63016;55.030;38.710;2023-08-17T05:33:38;100755.28;;;21.59;61.69
74544;BME280;63016;55.030;38.710;2023-08-17T05:36:06;100743.13;;;21.69;61.75
74544;BME280;63016;55.030;38.710;2023-08-17T05:38:32;100734.66;;;21.79;61.92
74544;BME280;63016;55.030;38.710;2023-08-17T05:40:58;100740.09;;;21.91;62.14
74544;BME280;63016;55.030;38.710;2023-08-17T05:43:24;100741.94;;;22.08;61.78
74544;BME280;63016;55.030;38.710;2023-08-17T05:45:50;100749.00;;;22.21;61.55
74544;BME280;63016;55.030;38.710;2023-08-17T05:48:18;100750.31;;;22.30;61.28
74544;BME280;63016;55.030;38.710;2023-08-17T05:50:44;100747.16;;;22.40;61.59
74544;BME280;63016;55.030;38.710;2023-08-17T05:53:09;100737.59;;;22.51;61.81
74544;BME280;63016;55.030;38.710;2023-08-17T05:55:35;100748.66;;;22.66;61.36
74544;BME280;63016;55.030;38.710;2023-08-17T05:58:01;100744.22;;;22.78;61.06
74544;BME280;63016;55.030;38.710;2023-08-17T06:00:29;100736.91;;;22.92;61.38
74544;BME280;63016;55.030;38.710;2023-08-17T06:02:55;100748.38;;;23.04;60.88
74544;BME280;63016;55.030;38.710;2023-08-17T06:05:26;100746.78;;;23.15;61.20
74544;BME280;63016;55.030;38.710;2023-08-17T06:07:52;100739.97;;;23.19;60.28
74544;BME280;63016;55.030;38.710;2023-08-17T06:10:18;100754.03;;;23.38;59.90
74544;BME280;63016;55.030;38.710;2023-08-17T06:12:44;100750.78;;;23.48;60.68
74544;BME280;63016;55.030;38.710;2023-08-17T06:15:09;100756.47;;;23.63;60.56
74544;BME280;63016;55.030;38.710;2023-08-17T06:17:35;100758.59;;;23.73;60.10
74544;BME280;63016;55.030;38.710;2023-08-17T06:20:01;100747.16;;;23.84;59.19
74544;BME280;63016;55.030;38.710;2023-08-17T06:22:28;100747.28;;;23.89;59.28
74544;BME280;63016;55.030;38.710;2023-08-17T06:24:53;100747.69;;;23.98;59.67
74544;BME280;63016;55.030;38.710;2023-08-17T06:27:19;100749.66;;;24.02;58.81
74544;BME280;63016;55.030;38.710;2023-08-17T06:29:44;100744.22;;;24.09;58.52
74544;BME280;63016;55.030;38.710;2023-08-17T06:32:10;100729.41;;;24.13;58.48
74544;BME280;63016;55.030;38.710;2023-08-17T06:34:35;100744.91;;;24.28;58.54
74544;BME280;63016;55.030;38.710;2023-08-17T06:37:03;100739.00;;;24.38;58.09
74544;BME280;63016;55.030;38.710;2023-08-17T06:39:28;100735.38;;;24.44;58.56
74544;BME280;63016;55.030;38.710;2023-08-17T06:41:54;100748.66;;;24.55;58.14
74544;BME280;63016;55.030;38.710;2023-08-17T06:44:20;100748.66;;;24.67;58.32
74544;BME280;63016;55.030;38.710;2023-08-17T06:46:46;100743.75;;;24.76;58.48
74544;BME280;63016;55.030;38.710;2023-08-17T06:49:12;100746.59;;;24.86;58.76
74544;BME280;63016;55.030;38.710;2023-08-17T06:51:38;100752.13;;;24.96;58.20
74544;BME280;63016;55.030;38.710;2023-08-17T06:54:04;100755.13;;;25.00;57.28
74544;BME280;63016;55.030;38.710;2023-08-17T06:56:30;100748.81;;;25.06;57.70
74544;BME280;63016;55.030;38.710;2023-08-17T06:58:56;100750.00;;;25.10;57.75
74544;BME280;63016;55.030;38.710;2023-08-17T07:01:21;100749.38;;;25.20;57.91
74544;BME280;63016;55.030;38.710;2023-08-17T07:03:47;100751.88;;;25.26;57.25
74544;BME280;63016;55.030;38.710;2023-08-17T07:06:13;100749.03;;;25.33;57.60
74544;BME280;63016;55.030;38.710;2023-08-17T07:08:38;100747.03;;;25.40;57.42
74544;BME280;63016;55.030;38.710;2023-08-17T07:11:04;100746.28;;;25.45;56.29
74544;BME280;63016;55.030;38.710;2023-08-17T07:13:31;100736.88;;;25.42;56.41
74544;BME280;63016;55.030;38.710;2023-08-17T07:15:57;100749.03;;;25.50;56.95
74544;BME280;63016;55.030;38.710;2023-08-17T07:18:22;100749.94;;;25.55;56.09
74544;BME280;63016;55.030;38.710;2023-08-17T07:20:48;100740.63;;;25.58;56.29
74544;BME280;63016;55.030;38.710;2023-08-17T07:23:14;100738.75;;;25.58;56.25
74544;BME280;63016;55.030;38.710;2023-08-17T07:25:40;100740.72;;;25.63;55.59
74544;BME280;63016;55.030;38.710;2023-08-17T07:28:06;100740.53;;;25.70;56.48
74544;BME280;63016;55.030;38.710;2023-08-17T07:30:31;100736.09;;;25.75;56.43
74544;BME280;63016;55.030;38.710;2023-08-17T07:32:57;100736.97;;;25.81;55.78
74544;BME280;63016;55.030;38.710;2023-08-17T07:35:22;100737.84;;;25.86;55.54
74544;BME280;63016;55.030;38.710;2023-08-17T07:37:48;100720.25;;;25.91;55.55
74544;BME280;63016;55.030;38.710;2023-08-17T07:40:14;100727.31;;;25.97;55.36
74544;BME280;63016;55.030;38.710;2023-08-17T07:42:39;100730.06;;;26.02;55.36
74544;BME280;63016;55.030;38.710;2023-08-17T07:45:05;100728.25;;;26.07;54.91
74544;BME280;63016;55.030;38.710;2023-08-17T07:47:34;100714.56;;;26.04;55.50
74544;BME280;63016;55.030;38.710;2023-08-17T07:50:00;100733.47;;;26.19;55.16
74544;BME280;63016;55.030;38.710;2023-08-17T07:52:25;100726.03;;;26.21;54.64
74544;BME280;63016;55.030;38.710;2023-08-17T07:54:51;100720.41;;;26.23;54.97
74544;BME280;63016;55.030;38.710;2023-08-17T07:57:16;100726.31;;;26.25;54.63
74544;BME280;63016;55.030;38.710;2023-08-17T07:59:42;100728.00;;;26.31;54.78
74544;BME280;63016;55.030;38.710;2023-08-17T08:02:07;100734.72;;;26.33;54.54
74544;BME280;63016;55.030;38.710;2023-08-17T08:04:33;100728.63;;;26.38;55.01
74544;BME280;63016;55.030;38.710;2023-08-17T08:06:58;100727.63;;;26.44;54.90
74544;BME280;63016;55.030;38.710;2023-08-17T08:09:24;100724.22;;;26.49;54.67
74544;BME280;63016;55.030;38.710;2023-08-17T08:11:49;100695.91;;;26.31;54.32
74544;BME280;63016;55.030;38.710;2023-08-17T08:14:15;100714.03;;;26.46;54.00
74544;BME280;63016;55.030;38.710;2023-08-17T08:16:42;100720.50;;;26.50;53.85
74544;BME280;63016;55.030;38.710;2023-08-17T08:19:09;100727.69;;;26.49;54.43
74544;BME280;63016;55.030;38.710;2023-08-17T08:21:34;100708.41;;;26.47;54.07
74544;BME280;63016;55.030;38.710;2023-08-17T08:24:00;100717.38;;;26.58;53.91
74544;BME280;63016;55.030;38.710;2023-08-17T08:26:25;100708.56;;;26.62;54.02
74544;BME280;63016;55.030;38.710;2023-08-17T08:28:51;100714.28;;;26.71;54.74
74544;BME280;63016;55.030;38.710;2023-08-17T08:31:16;100706.63;;;26.80;54.77
74544;BME280;63016;55.030;38.710;2023-08-17T08:33:43;100715.00;;;26.88;54.12
74544;BME280;63016;55.030;38.710;2023-08-17T08:36:08;100715.88;;;26.94;54.00
74544;BME280;63016;55.030;38.710;2023-08-17T08:38:34;100717.47;;;26.95;54.17
74544;BME280;63016;55.030;38.710;2023-08-17T08:41:00;100708.09;;;26.98;53.36
74544;BME280;63016;55.030;38.710;2023-08-17T08:43:26;100707.34;;;27.02;53.57
74544;BME280;63016;55.030;38.710;2023-08-17T08:45:52;100704.44;;;27.04;53.76
74544;BME280;63016;55.030;38.710;2023-08-17T08:48:22;100703.69;;;27.08;53.77
74544;BME280;63016;55.030;38.710;2023-08-17T08:50:49;100695.88;;;27.07;53.07
74544;BME280;63016;55.030;38.710;2023-08-17T08:53:15;100703.69;;;27.08;53.03
74544;BME280;63016;55.030;38.710;2023-08-17T08:55:55;100696.19;;;27.10;54.14
74544;BME280;63016;55.030;38.710;2023-08-17T08:58:24;100704.00;;;27.17;53.31
74544;BME280;63016;55.030;38.710;2023-08-17T09:00:50;100703.50;;;27.20;53.32
74544;BME280;63016;55.030;38.710;2023-08-17T09:03:17;100698.97;;;27.21;52.87
74544;BME280;63016;55.030;38.710;2023-08-17T09:05:49;100707.31;;;27.24;53.97
74544;BME280;63016;55.030;38.710;2023-08-17T09:08:15;100701.22;;;27.34;55.85
74544;BME280;63016;55.030;38.710;2023-08-17T09:10:41;100699.34;;;27.34;52.28
74544;BME280;63016;55.030;38.710;2023-08-17T09:13:07;100696.34;;;27.31;52.50
74544;BME280;63016;55.030;38.710;2023-08-17T09:15:34;100700.09;;;27.30;52.64
74544;BME280;63016;55.030;38.710;2023-08-17T09:17:59;100698.78;;;27.32;52.78
74544;BME280;63016;55.030;38.710;2023-08-17T09:20:45;100691.34;;;27.39;54.07
74544;BME280;63016;55.030;38.710;2023-08-17T09:23:12;100685.44;;;27.37;52.44
74544;BME280;63016;55.030;38.710;2023-08-17T09:25:42;100705.56;;;27.45;52.64
74544;BME280;63016;55.030;38.710;2023-08-17T09:28:10;100697.78;;;27.44;52.13
74544;BME280;63016;55.030;38.710;2023-08-17T09:31:01;100694.06;;;27.50;53.85
74544;BME280;63016;55.030;38.710;2023-08-17T09:33:30;100692.78;;;27.57;52.21
74544;BME280;63016;55.030;38.710;2023-08-17T09:35:57;100692.53;;;27.59;52.29
74544;BME280;63016;55.030;38.710;2023-08-17T09:38:23;100694.44;;;27.63;52.31
74544;BME280;63016;55.030;38.710;2023-08-17T09:40:49;100684.78;;;27.62;51.51
74544;BME280;63016;55.030;38.710;2023-08-17T09:43:16;100686.09;;;27.60;51.19
74544;BME280;63016;55.030;38.710;2023-08-17T09:45:44;100690.16;;;27.62;52.40
74544;BME280;63016;55.030;38.710;2023-08-17T09:48:14;100679.16;;;27.64;53.07
74544;BME280;63016;55.030;38.710;2023-08-17T09:50:40;100672.47;;;27.66;52.07
74544;BME280;63016;55.030;38.710;2023-08-17T09:53:05;100686.16;;;27.70;51.86
74544;BME280;63016;55.030;38.710;2023-08-17T09:55:31;100698.00;;;27.74;51.45
74544;BME280;63016;55.030;38.710;2023-08-17T09:58:00;100689.09;;;27.68;51.40
74544;BME280;63016;55.030;38.710;2023-08-17T10:00:27;100685.06;;;27.66;51.63
74544;BME280;63016;55.030;38.710;2023-08-17T10:02:53;100671.94;;;27.70;51.39
74544;BME280;63016;55.030;38.710;2023-08-17T10:05:19;100679.00;;;27.76;51.66
74544;BME280;63016;55.030;38.710;2023-08-17T10:07:53;100676.59;;;27.84;52.35
74544;BME280;63016;55.030;38.710;2023-08-17T10:10:25;100678.50;;;27.89;51.66
74544;BME280;63016;55.030;38.710;2023-08-17T10:15:29;100677.94;;;27.82;50.92
74544;BME280;63016;55.030;38.710;2023-08-17T10:18:02;100674.47;;;27.81;51.53
74544;BME280;63016;55.030;38.710;2023-08-17T10:20:34;100674.19;;;27.83;50.92
74544;BME280;63016;55.030;38.710;2023-08-17T10:23:14;100665.63;;;27.81;50.95
74544;BME280;63016;55.030;38.710;2023-08-17T10:25:41;100670.16;;;27.80;51.11
74544;BME280;63016;55.030;38.710;2023-08-17T10:28:09;100677.41;;;27.85;52.11
74544;BME280;63016;55.030;38.710;2023-08-17T10:30:36;100678.25;;;27.90;50.38
74544;BME280;63016;55.030;38.710;2023-08-17T10:33:04;100684.16;;;27.92;50.97
74544;BME280;63016;55.030;38.710;2023-08-17T10:35:32;100673.44;;;27.92;51.07
74544;BME280;63016;55.030;38.710;2023-08-17T10:37:58;100676.66;;;27.95;50.09
74544;BME280;63016;55.030;38.710;2023-08-17T10:40:36;100673.44;;;27.92;50.22
74544;BME280;63016;55.030;38.710;2023-08-17T10:43:02;100663.75;;;27.86;50.28
74544;BME280;63016;55.030;38.710;2023-08-17T10:45:29;100669.16;;;27.97;50.12
74544;BME280;63016;55.030;38.710;2023-08-17T10:50:36;100667.59;;;28.06;49.86
74544;BME280;63016;55.030;38.710;2023-08-17T10:53:12;100668.91;;;28.03;50.54
74544;BME280;63016;55.030;38.710;2023-08-17T10:55:40;100670.25;;;28.01;50.38
74544;BME280;63016;55.030;38.710;2023-08-17T10:58:06;100672.97;;;28.06;50.18
74544;BME280;63016;55.030;38.710;2023-08-17T11:00:37;100671.09;;;28.11;50.63
74544;BME280;63016;55.030;38.710;2023-08-17T11:03:08;100661.69;;;28.14;50.51
74544;BME280;63016;55.030;38.710;2023-08-17T11:05:40;100663.88;;;28.17;50.33
74544;BME280;63016;55.030;38.710;2023-08-17T11:08:07;100655.81;;;28.22;50.06
74544;BME280;63016;55.030;38.710;2023-08-17T11:10:36;100659.31;;;28.28;50.63
74544;BME280;63016;55.030;38.710;2023-08-17T11:13:04;100637.84;;;28.28;49.89
74544;BME280;63016;55.030;38.710;2023-08-17T11:15:41;100647.59;;;28.39;50.91
74544;BME280;63016;55.030;38.710;2023-08-17T11:18:11;100648.41;;;28.39;49.85
74544;BME280;63016;55.030;38.710;2023-08-17T11:20:39;100645.16;;;28.42;49.70
74544;BME280;63016;55.030;38.710;2023-08-17T11:23:09;100647.06;;;28.47;49.62
74544;BME280;63016;55.030;38.710;2023-08-17T11:25:35;100645.44;;;28.51;49.73
74544;BME280;63016;55.030;38.710;2023-08-17T11:28:02;100640.38;;;28.55;49.31
74544;BME280;63016;55.030;38.710;2023-08-17T11:30:28;100638.47;;;28.55;50.01
74544;BME280;63016;55.030;38.710;2023-08-17T11:32:54;100631.50;;;28.59;49.31
74544;BME280;63016;55.030;38.710;2023-08-17T11:35:21;100645.75;;;28.65;49.41
74544;BME280;63016;55.030;38.710;2023-08-17T11:37:47;100634.19;;;28.64;49.55
74544;BME280;63016;55.030;38.710;2023-08-17T11:40:14;100632.88;;;28.72;49.46
74544;BME280;63016;55.030;38.710;2023-08-17T11:42:40;100645.22;;;28.78;49.44
74544;BME280;63016;55.030;38.710;2023-08-17T11:45:07;100636.09;;;28.79;50.11
74544;BME280;63016;55.030;38.710;2023-08-17T11:47:37;100637.44;;;28.82;48.71
74544;BME280;63016;55.030;38.710;2023-08-17T11:50:03;100628.56;;;28.76;49.01
74544;BME280;63016;55.030;38.710;2023-08-17T11:52:30;100641.72;;;28.83;49.66
74544;BME280;63016;55.030;38.710;2023-08-17T11:54:59;100634.47;;;28.83;48.67
74544;BME280;63016;55.030;38.710;2023-08-17T11:57:26;100626.94;;;28.80;49.08
74544;BME280;63016;55.030;38.710;2023-08-17T11:59:55;100632.31;;;28.85;49.24
74544;BME280;63016;55.030;38.710;2023-08-17T12:02:23;100630.19;;;28.87;49.33
74544;BME280;63016;55.030;38.710;2023-08-17T12:04:52;100626.13;;;28.90;49.00
74544;BME280;63016;55.030;38.710;2023-08-17T12:07:19;100629.09;;;28.93;49.04
74544;BME280;63016;55.030;38.710;2023-08-17T12:09:49;100625.34;;;29.00;49.38
74544;BME280;63016;55.030;38.710;2023-08-17T12:12:18;100625.63;;;29.03;49.72
74544;BME280;63016;55.030;38.710;2023-08-17T12:14:46;100625.91;;;29.07;48.98
74544;BME280;63016;55.030;38.710;2023-08-17T12:17:19;100623.47;;;29.05;49.10
74544;BME280;63016;55.030;38.710;2023-08-17T12:19:45;100619.97;;;29.05;48.28
74544;BME280;63016;55.030;38.710;2023-08-17T12:22:13;100616.22;;;29.01;48.80
74544;BME280;63016;55.030;38.710;2023-08-17T12:24:39;100615.69;;;29.04;48.16
74544;BME280;63016;55.030;38.710;2023-08-17T12:27:08;100609.78;;;29.02;49.46
74544;BME280;63016;55.030;38.710;2023-08-17T12:29:34;100617.03;;;29.11;49.25
74544;BME280;63016;55.030;38.710;2023-08-17T12:32:02;100611.09;;;29.19;48.84
74544;BME280;63016;55.030;38.710;2023-08-17T12:34:28;100609.75;;;29.22;48.40
74544;BME280;63016;55.030;38.710;2023-08-17T12:36:53;100614.84;;;29.24;48.57
74544;BME280;63016;55.030;38.710;2023-08-17T12:39:19;100602.22;;;29.24;48.35
74544;BME280;63016;55.030;38.710;2023-08-17T12:41:44;100614.56;;;29.25;48.21
74544;BME280;63016;55.030;38.710;2023-08-17T12:44:10;100614.03;;;29.23;48.13
74544;BME280;63016;55.030;38.710;2023-08-17T12:46:42;100613.53;;;29.21;48.45
74544;BME280;63016;55.030;38.710;2023-08-17T12:49:07;100608.94;;;29.22;47.89